createdAt,value
2019-01-16T00:00:08.162Z,1010.50
2019-01-16T00:01:07.931Z,1010.60
2019-01-16T00:02:07.930Z,1010.51
2019-01-16T00:03:07.924Z,1010.50
2019-01-16T00:04:07.916Z,1010.55
2019-01-16T00:05:07.913Z,1010.52
2019-01-16T00:06:07.923Z,1010.47
2019-01-16T00:07:07.903Z,1010.49
2019-01-16T00:08:07.908Z,1010.46
2019-01-16T00:09:07.903Z,1010.47
2019-01-16T00:10:07.893Z,1010.45
2019-01-16T00:11:07.889Z,1010.43
2019-01-16T00:12:07.902Z,1010.40
2019-01-16T00:13:07.900Z,1010.39
2019-01-16T00:14:07.891Z,1010.42
2019-01-16T00:15:07.914Z,1010.40
2019-01-16T00:16:07.882Z,1010.37
2019-01-16T00:17:07.865Z,1010.39
2019-01-16T00:18:07.873Z,1010.36
2019-01-16T00:19:08.061Z,1010.38
2019-01-16T00:20:07.847Z,1010.40
2019-01-16T00:21:07.859Z,1010.34
2019-01-16T00:22:07.847Z,1010.32
2019-01-16T00:23:07.843Z,1010.37
2019-01-16T00:24:08.052Z,1010.30
2019-01-16T00:25:08.036Z,1010.30
2019-01-16T00:26:07.822Z,1010.31
2019-01-16T00:27:08.026Z,1010.24
2019-01-16T00:28:07.811Z,1010.16
2019-01-16T00:29:07.816Z,1010.25
2019-01-16T00:30:07.813Z,1010.27
2019-01-16T00:31:07.815Z,1010.20
2019-01-16T00:32:07.819Z,1010.29
2019-01-16T00:33:08.013Z,1010.22
2019-01-16T00:34:07.786Z,1010.23
2019-01-16T00:35:07.796Z,1010.20
2019-01-16T00:36:07.800Z,1010.18
2019-01-16T00:37:07.793Z,1010.21
2019-01-16T00:38:07.780Z,1010.18
2019-01-16T00:39:07.781Z,1010.18
2019-01-16T00:40:07.769Z,1010.17
2019-01-16T00:41:07.779Z,1010.12
2019-01-16T00:42:07.755Z,1010.13
2019-01-16T00:43:07.759Z,1010.10
2019-01-16T00:44:07.980Z,1010.12
2019-01-16T00:45:07.954Z,1010.10
2019-01-16T00:46:07.746Z,1010.06
2019-01-16T00:47:07.741Z,1010.09
2019-01-16T00:48:07.732Z,1010.08
2019-01-16T00:49:07.931Z,1010.06
2019-01-16T00:50:07.724Z,1010.05
2019-01-16T00:51:07.722Z,1010.08
2019-01-16T00:52:07.717Z,1010.08
2019-01-16T00:53:07.709Z,1009.98
2019-01-16T00:54:07.731Z,1010.03
2019-01-16T00:55:07.726Z,1009.99
2019-01-16T00:56:07.708Z,1010.02
2019-01-16T00:57:07.694Z,1010.01
2019-01-16T00:58:07.694Z,1010.02
2019-01-16T00:59:07.724Z,1009.97
2019-01-16T01:00:07.929Z,1010.00
2019-01-16T01:01:07.703Z,1010.02
2019-01-16T01:02:07.689Z,1010.01
2019-01-16T01:03:07.689Z,1010.05
2019-01-16T01:04:07.665Z,1010.04
2019-01-16T01:05:07.877Z,1010.02
2019-01-16T01:06:07.676Z,1009.99
2019-01-16T01:07:07.672Z,1010.01
2019-01-16T01:08:07.672Z,1009.98
2019-01-16T01:09:07.650Z,1010.00
2019-01-16T01:10:07.649Z,1009.88
2019-01-16T01:11:07.635Z,1009.96
2019-01-16T01:12:07.839Z,1009.91
2019-01-16T01:13:07.630Z,1009.93
2019-01-16T01:14:07.634Z,1009.97
2019-01-16T01:15:07.630Z,1009.91
2019-01-16T01:16:07.631Z,1009.96
2019-01-16T01:17:07.620Z,1009.97
2019-01-16T01:18:07.611Z,1009.91
2019-01-16T01:19:07.617Z,1009.95
2019-01-16T01:20:07.608Z,1009.94
2019-01-16T01:21:07.600Z,1009.91
2019-01-16T01:22:07.608Z,1009.88
2019-01-16T01:23:07.590Z,1009.90
2019-01-16T01:24:07.786Z,1009.94
2019-01-16T01:25:07.583Z,1009.88
2019-01-16T01:26:07.574Z,1009.92
2019-01-16T01:27:07.569Z,1009.93
2019-01-16T01:28:07.569Z,1009.91
2019-01-16T01:29:07.566Z,1009.90
2019-01-16T01:30:07.560Z,1009.89
2019-01-16T01:31:07.569Z,1009.96
2019-01-16T01:32:07.556Z,1009.88
2019-01-16T01:33:07.554Z,1009.91
2019-01-16T01:34:07.546Z,1009.91
2019-01-16T01:35:07.532Z,1009.91
2019-01-16T01:36:07.549Z,1009.89
2019-01-16T01:37:07.529Z,1009.90
2019-01-16T01:38:07.550Z,1009.92
2019-01-16T01:39:07.530Z,1009.98
2019-01-16T01:40:07.528Z,1009.90
2019-01-16T01:41:07.511Z,1009.94
2019-01-16T01:42:07.505Z,1009.98
2019-01-16T01:43:07.507Z,1009.99
2019-01-16T01:44:07.503Z,1009.93
2019-01-16T01:45:07.507Z,1010.02
2019-01-16T01:46:07.691Z,1009.99
2019-01-16T01:47:07.481Z,1010.00
2019-01-16T01:48:07.479Z,1010.02
2019-01-16T01:49:07.481Z,1009.96
2019-01-16T01:50:07.501Z,1009.97
2019-01-16T01:51:07.468Z,1009.99
2019-01-16T01:52:07.470Z,1009.98
2019-01-16T01:53:07.476Z,1009.98
2019-01-16T01:54:07.465Z,1009.97
2019-01-16T01:55:07.461Z,1009.97
2019-01-16T01:56:07.443Z,1010.00
2019-01-16T01:57:07.457Z,1010.00
2019-01-16T01:58:07.441Z,1009.94
2019-01-16T01:59:07.430Z,1009.93
2019-01-16T02:00:07.441Z,1009.96
2019-01-16T02:01:07.430Z,1009.99
2019-01-16T02:02:07.425Z,1009.95
2019-01-16T02:03:07.437Z,1009.94
2019-01-16T02:04:07.414Z,1009.93
2019-01-16T02:05:07.414Z,1009.94
2019-01-16T02:06:07.418Z,1009.89
2019-01-16T02:07:07.407Z,1009.86
2019-01-16T02:08:07.603Z,1009.87
2019-01-16T02:09:07.410Z,1009.87
2019-01-16T02:10:07.405Z,1009.80
2019-01-16T02:11:07.392Z,1009.84
2019-01-16T02:12:07.395Z,1009.84
2019-01-16T02:13:07.579Z,1009.80
2019-01-16T02:14:07.382Z,1009.82
2019-01-16T02:15:07.368Z,1009.77
2019-01-16T02:16:07.375Z,1009.73
2019-01-16T02:17:07.365Z,1009.79
2019-01-16T02:18:07.575Z,1009.75
2019-01-16T02:19:07.355Z,1009.74
2019-01-16T02:20:07.343Z,1009.67
2019-01-16T02:21:07.342Z,1009.64
2019-01-16T02:22:07.335Z,1009.65
2019-01-16T02:23:07.367Z,1009.63
2019-01-16T02:24:07.331Z,1009.67
2019-01-16T02:25:07.328Z,1009.70
2019-01-16T02:26:07.330Z,1009.66
2019-01-16T02:27:07.336Z,1009.66
2019-01-16T02:28:07.343Z,1009.70
2019-01-16T02:29:07.323Z,1009.63
2019-01-16T02:30:07.517Z,1009.67
2019-01-16T02:31:07.502Z,1009.66
2019-01-16T02:32:07.312Z,1009.67
2019-01-16T02:33:07.299Z,1009.64
2019-01-16T02:34:07.289Z,1009.69
2019-01-16T02:35:07.296Z,1009.71
2019-01-16T02:36:07.292Z,1009.72
2019-01-16T02:37:07.275Z,1009.64
2019-01-16T02:38:07.285Z,1009.67
2019-01-16T02:39:07.277Z,1009.64
2019-01-16T02:40:07.283Z,1009.62
2019-01-16T02:41:07.285Z,1009.60
2019-01-16T02:42:07.457Z,1009.60
2019-01-16T02:43:07.258Z,1009.62
2019-01-16T02:44:07.295Z,1009.60
2019-01-16T02:45:07.241Z,1009.63
2019-01-16T02:46:07.436Z,1009.53
2019-01-16T02:47:07.284Z,1009.52
2019-01-16T02:48:07.230Z,1009.54
2019-01-16T02:49:07.456Z,1009.54
2019-01-16T02:50:07.238Z,1009.53
2019-01-16T02:51:07.438Z,1009.56
2019-01-16T02:52:07.212Z,1009.53
2019-01-16T02:53:07.210Z,1009.56
2019-01-16T02:54:07.200Z,1009.53
2019-01-16T02:55:07.214Z,1009.45
2019-01-16T02:56:07.212Z,1009.52
2019-01-16T02:57:07.199Z,1009.49
2019-01-16T02:58:07.190Z,1009.47
2019-01-16T02:59:07.186Z,1009.49
2019-01-16T03:00:07.181Z,1009.48
2019-01-16T03:01:07.180Z,1009.48
2019-01-16T03:02:07.184Z,1009.48
2019-01-16T03:03:07.175Z,1009.48
2019-01-16T03:04:07.173Z,1009.46
2019-01-16T03:05:07.177Z,1009.41
2019-01-16T03:06:07.154Z,1009.42
2019-01-16T03:07:07.149Z,1009.43
2019-01-16T03:08:07.169Z,1009.36
2019-01-16T03:09:07.141Z,1009.40
2019-01-16T03:10:07.146Z,1009.35
2019-01-16T03:11:07.143Z,1009.35
2019-01-16T03:12:07.125Z,1009.36
2019-01-16T03:13:07.129Z,1009.30
2019-01-16T03:14:07.126Z,1009.35
2019-01-16T03:15:07.131Z,1009.32
2019-01-16T03:16:07.139Z,1009.32
2019-01-16T03:17:07.324Z,1009.31
2019-01-16T03:18:07.333Z,1009.27
2019-01-16T03:19:07.102Z,1009.28
2019-01-16T03:20:07.097Z,1009.26
2019-01-16T03:21:07.102Z,1009.24
2019-01-16T03:22:07.094Z,1009.24
2019-01-16T03:23:07.289Z,1009.22
2019-01-16T03:24:07.079Z,1009.25
2019-01-16T03:25:07.076Z,1009.18
2019-01-16T03:26:07.080Z,1009.18
2019-01-16T03:27:07.105Z,1009.18
2019-01-16T03:28:07.075Z,1009.18
2019-01-16T03:29:07.057Z,1009.16
2019-01-16T03:30:07.075Z,1009.14
2019-01-16T03:31:07.067Z,1009.16
2019-01-16T03:32:07.061Z,1009.15
2019-01-16T03:33:07.053Z,1009.09
2019-01-16T03:34:07.057Z,1009.13
2019-01-16T03:35:07.244Z,1009.12
2019-01-16T03:36:07.228Z,1009.12
2019-01-16T03:37:07.225Z,1009.07
2019-01-16T03:38:07.032Z,1009.09
2019-01-16T03:39:07.234Z,1009.04
2019-01-16T03:40:07.031Z,1009.04
2019-01-16T03:41:07.225Z,1009.02
2019-01-16T03:42:07.019Z,1009.05
2019-01-16T03:43:06.995Z,1009.01
2019-01-16T03:44:07.008Z,1008.98
2019-01-16T03:45:07.005Z,1009.04
2019-01-16T03:46:07.007Z,1008.99
2019-01-16T03:47:07.000Z,1009.00
2019-01-16T03:48:06.993Z,1009.01
2019-01-16T03:49:13.215Z,1008.99
2019-01-16T03:50:06.988Z,1008.95
2019-01-16T03:51:07.181Z,1008.95
2019-01-16T03:52:07.218Z,1008.99
2019-01-16T03:53:06.964Z,1008.94
2019-01-16T03:54:06.957Z,1008.93
2019-01-16T03:55:06.963Z,1008.90
2019-01-16T03:56:06.961Z,1008.94
2019-01-16T03:57:06.950Z,1008.91
2019-01-16T03:58:07.151Z,1008.90
2019-01-16T03:59:06.934Z,1008.84
2019-01-16T04:00:06.936Z,1008.86
2019-01-16T04:01:06.941Z,1008.83
2019-01-16T04:02:06.919Z,1008.80
2019-01-16T04:03:06.919Z,1008.83
2019-01-16T04:04:06.915Z,1008.82
2019-01-16T04:05:07.123Z,1008.82
2019-01-16T04:06:07.117Z,1008.79
2019-01-16T04:07:06.918Z,1008.74
2019-01-16T04:08:06.911Z,1008.76
2019-01-16T04:09:06.896Z,1008.74
2019-01-16T04:10:06.882Z,1008.71
2019-01-16T04:11:06.897Z,1008.72
2019-01-16T04:12:06.887Z,1008.70
2019-01-16T04:13:06.887Z,1008.64
2019-01-16T04:14:06.872Z,1008.61
2019-01-16T04:15:06.878Z,1008.65
2019-01-16T04:16:06.873Z,1008.58
2019-01-16T04:17:07.078Z,1008.60
2019-01-16T04:18:06.858Z,1008.62
2019-01-16T04:19:06.862Z,1008.58
2019-01-16T04:20:06.856Z,1008.55
2019-01-16T04:21:06.870Z,1008.54
2019-01-16T04:22:07.049Z,1008.53
2019-01-16T04:23:06.836Z,1008.47
2019-01-16T04:24:06.841Z,1008.46
2019-01-16T04:25:06.842Z,1008.47
2019-01-16T04:26:06.836Z,1008.45
2019-01-16T04:27:06.821Z,1008.40
2019-01-16T04:28:06.825Z,1008.38
2019-01-16T04:29:06.809Z,1008.41
2019-01-16T04:30:06.819Z,1008.37
2019-01-16T04:31:06.798Z,1008.32
2019-01-16T04:32:06.794Z,1008.30
2019-01-16T04:33:06.795Z,1008.30
2019-01-16T04:34:06.795Z,1008.28
2019-01-16T04:35:06.795Z,1008.24
2019-01-16T04:36:06.785Z,1008.21
2019-01-16T04:37:06.787Z,1008.21
2019-01-16T04:38:06.776Z,1008.22
2019-01-16T04:39:06.972Z,1008.20
2019-01-16T04:40:06.777Z,1008.21
2019-01-16T04:41:06.779Z,1008.17
2019-01-16T04:42:06.753Z,1008.21
2019-01-16T04:43:06.750Z,1008.14
2019-01-16T04:44:06.960Z,1008.14
2019-01-16T04:45:06.754Z,1008.17
2019-01-16T04:46:06.769Z,1008.15
2019-01-16T04:47:06.735Z,1008.16
2019-01-16T04:48:06.736Z,1008.07
2019-01-16T04:49:06.724Z,1008.09
2019-01-16T04:50:06.733Z,1008.06
2019-01-16T04:51:06.937Z,1007.99
2019-01-16T04:52:06.712Z,1008.01
2019-01-16T04:53:06.709Z,1008.00
2019-01-16T04:54:06.731Z,1008.03
2019-01-16T04:55:06.717Z,1007.98
2019-01-16T04:56:06.700Z,1008.02
2019-01-16T04:57:06.708Z,1008.00
2019-01-16T04:58:06.722Z,1007.96
2019-01-16T04:59:06.899Z,1007.96
2019-01-16T05:00:06.890Z,1007.98
2019-01-16T05:01:06.692Z,1007.94
2019-01-16T05:02:06.882Z,1007.93
2019-01-16T05:03:06.671Z,1007.92
2019-01-16T05:04:06.892Z,1007.93
2019-01-16T05:05:06.658Z,1007.93
2019-01-16T05:06:06.860Z,1007.93
2019-01-16T05:07:06.660Z,1007.94
2019-01-16T05:08:06.665Z,1007.91
2019-01-16T05:09:06.850Z,1007.95
2019-01-16T05:10:06.669Z,1007.90
2019-01-16T05:11:06.654Z,1007.88
2019-01-16T05:12:06.643Z,1007.86
2019-01-16T05:13:06.624Z,1007.91
2019-01-16T05:14:06.630Z,1007.84
2019-01-16T05:15:06.645Z,1007.84
2019-01-16T05:16:06.618Z,1007.87
2019-01-16T05:17:06.659Z,1007.82
2019-01-16T05:18:06.646Z,1007.79
2019-01-16T05:19:06.812Z,1007.80
2019-01-16T05:20:06.622Z,1007.78
2019-01-16T05:21:06.600Z,1007.79
2019-01-16T05:22:06.599Z,1007.78
2019-01-16T05:23:06.597Z,1007.75
2019-01-16T05:24:06.804Z,1007.75
2019-01-16T05:25:06.585Z,1007.75
2019-01-16T05:26:06.574Z,1007.72
2019-01-16T05:27:06.577Z,1007.71
2019-01-16T05:28:06.568Z,1007.73
2019-01-16T05:29:06.769Z,1007.73
2019-01-16T05:30:06.566Z,1007.69
2019-01-16T05:31:06.554Z,1007.72
2019-01-16T05:32:06.552Z,1007.70
2019-01-16T05:33:06.557Z,1007.65
2019-01-16T05:34:06.541Z,1007.68
2019-01-16T05:35:06.537Z,1007.70
2019-01-16T05:36:06.543Z,1007.67
2019-01-16T05:37:06.541Z,1007.66
2019-01-16T05:38:06.523Z,1007.67
2019-01-16T05:39:06.521Z,1007.63
2019-01-16T05:40:06.513Z,1007.62
2019-01-16T05:41:06.520Z,1007.62
2019-01-16T05:42:06.532Z,1007.63
2019-01-16T05:43:06.527Z,1007.63
2019-01-16T05:44:06.501Z,1007.58
2019-01-16T05:45:06.495Z,1007.62
2019-01-16T05:46:06.498Z,1007.58
2019-01-16T05:47:06.694Z,1007.58
2019-01-16T05:48:06.690Z,1007.54
2019-01-16T05:49:06.488Z,1007.52
2019-01-16T05:50:06.683Z,1007.51
2019-01-16T05:51:06.475Z,1007.46
2019-01-16T05:52:06.477Z,1007.47
2019-01-16T05:53:06.672Z,1007.47
2019-01-16T05:54:06.464Z,1007.45
2019-01-16T05:55:06.462Z,1007.45
2019-01-16T05:56:06.449Z,1007.47
2019-01-16T05:57:06.652Z,1007.48
2019-01-16T05:58:06.447Z,1007.47
2019-01-16T05:59:06.439Z,1007.42
2019-01-16T06:00:06.449Z,1007.42
2019-01-16T06:01:06.441Z,1007.40
2019-01-16T06:02:06.627Z,1007.39
2019-01-16T06:03:06.421Z,1007.37
2019-01-16T06:04:06.414Z,1007.37
2019-01-16T06:05:06.416Z,1007.36
2019-01-16T06:06:06.427Z,1007.36
2019-01-16T06:07:06.427Z,1007.40
2019-01-16T06:08:06.405Z,1007.40
2019-01-16T06:09:06.404Z,1007.39
2019-01-16T06:10:06.402Z,1007.35
2019-01-16T06:11:06.389Z,1007.37
2019-01-16T06:12:06.404Z,1007.42
2019-01-16T06:13:06.381Z,1007.41
2019-01-16T06:14:06.379Z,1007.37
2019-01-16T06:15:06.380Z,1007.35
2019-01-16T06:16:06.378Z,1007.37
2019-01-16T06:17:06.388Z,1007.34
2019-01-16T06:18:06.373Z,1007.37
2019-01-16T06:19:06.356Z,1007.33
2019-01-16T06:20:06.359Z,1007.30
2019-01-16T06:21:06.353Z,1007.28
2019-01-16T06:22:06.343Z,1007.29
2019-01-16T06:23:06.559Z,1007.30
2019-01-16T06:24:06.340Z,1007.35
2019-01-16T06:25:06.340Z,1007.28
2019-01-16T06:26:06.349Z,1007.34
2019-01-16T06:27:06.328Z,1007.31
2019-01-16T06:28:06.330Z,1007.34
2019-01-16T06:29:06.343Z,1007.32
2019-01-16T06:30:06.316Z,1007.35
2019-01-16T06:31:06.324Z,1007.32
2019-01-16T06:32:06.514Z,1007.32
2019-01-16T06:33:06.298Z,1007.33
2019-01-16T06:34:06.300Z,1007.35
2019-01-16T06:35:06.336Z,1007.33
2019-01-16T06:36:06.494Z,1007.33
2019-01-16T06:37:06.288Z,1007.31
2019-01-16T06:38:06.291Z,1007.33
2019-01-16T06:39:06.281Z,1007.28
2019-01-16T06:40:06.272Z,1007.30
2019-01-16T06:41:06.269Z,1007.35
2019-01-16T06:42:06.265Z,1007.31
2019-01-16T06:43:06.263Z,1007.25
2019-01-16T06:44:06.258Z,1007.24
2019-01-16T06:45:06.255Z,1007.24
2019-01-16T06:46:06.244Z,1007.31
2019-01-16T06:47:06.252Z,1007.30
2019-01-16T06:48:06.237Z,1007.31
2019-01-16T06:49:06.241Z,1007.28
2019-01-16T06:50:06.237Z,1007.29
2019-01-16T06:51:06.231Z,1007.34
2019-01-16T06:52:06.223Z,1007.33
2019-01-16T06:53:06.236Z,1007.32
2019-01-16T06:54:06.225Z,1007.37
2019-01-16T06:55:06.217Z,1007.35
2019-01-16T06:56:06.211Z,1007.33
2019-01-16T06:57:06.201Z,1007.32
2019-01-16T06:58:06.196Z,1007.32
2019-01-16T06:59:06.403Z,1007.32
2019-01-16T07:00:06.197Z,1007.34
2019-01-16T07:01:06.192Z,1007.29
2019-01-16T07:02:06.386Z,1007.27
2019-01-16T07:03:06.176Z,1007.28
2019-01-16T07:04:06.172Z,1007.29
2019-01-16T07:05:06.169Z,1007.26
2019-01-16T07:06:06.385Z,1007.28
2019-01-16T07:07:06.172Z,1007.22
2019-01-16T07:08:06.155Z,1007.21
2019-01-16T07:09:06.161Z,1007.16
2019-01-16T07:10:06.154Z,1007.11
2019-01-16T07:11:06.179Z,1007.13
2019-01-16T07:12:06.152Z,1007.14
2019-01-16T07:13:06.151Z,1007.16
2019-01-16T07:14:06.146Z,1007.17
2019-01-16T07:15:06.151Z,1007.19
2019-01-16T07:16:06.329Z,1007.19
2019-01-16T07:17:06.120Z,1007.18
2019-01-16T07:18:06.117Z,1007.16
2019-01-16T07:19:06.118Z,1007.17
2019-01-16T07:20:09.856Z,1007.21
2019-01-16T07:21:06.099Z,1007.18
2019-01-16T07:22:06.205Z,1007.23
2019-01-16T07:23:06.099Z,1007.23
2019-01-16T07:24:06.109Z,1007.19
2019-01-16T07:25:06.106Z,1007.20
2019-01-16T07:26:06.087Z,1007.23
2019-01-16T07:27:06.107Z,1007.20
2019-01-16T07:28:06.080Z,1007.23
2019-01-16T07:29:06.082Z,1007.25
2019-01-16T07:30:06.065Z,1007.24
2019-01-16T07:31:06.060Z,1007.25
2019-01-16T07:32:06.059Z,1007.20
2019-01-16T07:33:06.066Z,1007.23
2019-01-16T07:34:06.052Z,1007.22
2019-01-16T07:35:06.046Z,1007.23
2019-01-16T07:36:06.054Z,1007.17
2019-01-16T07:37:06.048Z,1007.17
2019-01-16T07:38:06.035Z,1007.10
2019-01-16T07:39:06.044Z,1007.07
2019-01-16T07:40:06.250Z,1007.10
2019-01-16T07:41:06.018Z,1007.11
2019-01-16T07:42:06.016Z,1007.13
2019-01-16T07:43:06.013Z,1007.11
2019-01-16T07:44:06.011Z,1007.12
2019-01-16T07:45:06.035Z,1007.12
2019-01-16T07:46:06.209Z,1007.11
2019-01-16T07:47:06.009Z,1007.11
2019-01-16T07:48:06.007Z,1007.11
2019-01-16T07:49:05.993Z,1007.09
2019-01-16T07:50:06.188Z,1007.18
2019-01-16T07:51:05.980Z,1007.16
2019-01-16T07:52:06.198Z,1007.13
2019-01-16T07:53:05.975Z,1007.15
2019-01-16T07:54:05.982Z,1007.17
2019-01-16T07:55:06.175Z,1007.23
2019-01-16T07:56:05.959Z,1007.21
2019-01-16T07:57:05.959Z,1007.19
2019-01-16T07:58:05.950Z,1007.27
2019-01-16T07:59:05.963Z,1007.22
2019-01-16T08:00:05.955Z,1007.22
2019-01-16T08:01:05.940Z,1007.18
2019-01-16T08:02:06.151Z,1007.16
2019-01-16T08:03:05.933Z,1007.17
2019-01-16T08:04:05.930Z,1007.15
2019-01-16T08:05:05.920Z,1007.12
2019-01-16T08:06:05.923Z,1007.19
2019-01-16T08:07:05.914Z,1007.22
2019-01-16T08:08:05.919Z,1007.19
2019-01-16T08:09:05.934Z,1007.20
2019-01-16T08:10:05.904Z,1007.25
2019-01-16T08:11:05.972Z,1007.20
2019-01-16T08:12:05.892Z,1007.26
2019-01-16T08:13:05.885Z,1007.26
2019-01-16T08:14:05.889Z,1007.29
2019-01-16T08:15:05.898Z,1007.28
2019-01-16T08:16:05.887Z,1007.21
2019-01-16T08:17:05.878Z,1007.25
2019-01-16T08:18:06.080Z,1007.22
2019-01-16T08:19:05.863Z,1007.28
2019-01-16T08:20:05.857Z,1007.30
2019-01-16T08:21:05.882Z,1007.30
2019-01-16T08:22:05.849Z,1007.26
2019-01-16T08:23:05.841Z,1007.24
2019-01-16T08:24:06.046Z,1007.27
2019-01-16T08:25:05.842Z,1007.26
2019-01-16T08:26:05.862Z,1007.24
2019-01-16T08:27:05.829Z,1007.19
2019-01-16T08:28:06.041Z,1007.25
2019-01-16T08:29:05.823Z,1007.17
2019-01-16T08:30:05.818Z,1007.17
2019-01-16T08:31:06.018Z,1007.15
2019-01-16T08:32:05.806Z,1007.16
2019-01-16T08:33:05.804Z,1007.21
2019-01-16T08:34:05.799Z,1007.19
2019-01-16T08:35:05.799Z,1007.19
2019-01-16T08:36:05.802Z,1007.20
2019-01-16T08:37:06.012Z,1007.19
2019-01-16T08:38:05.793Z,1007.20
2019-01-16T08:39:05.792Z,1007.19
2019-01-16T08:40:05.803Z,1007.20
2019-01-16T08:41:05.974Z,1007.30
2019-01-16T08:42:05.763Z,1007.25
2019-01-16T08:43:05.766Z,1007.25
2019-01-16T08:44:13.315Z,1007.22
2019-01-16T08:45:05.769Z,1007.26
2019-01-16T08:46:05.748Z,1007.21
2019-01-16T08:47:05.750Z,1007.14
2019-01-16T08:48:05.743Z,1007.17
2019-01-16T08:49:05.736Z,1007.10
2019-01-16T08:50:05.725Z,1007.13
2019-01-16T08:51:05.742Z,1007.14
2019-01-16T08:52:05.924Z,1007.15
2019-01-16T08:53:05.718Z,1007.10
2019-01-16T08:54:05.716Z,1007.07
2019-01-16T08:55:05.704Z,1007.06
2019-01-16T08:56:05.703Z,1007.05
2019-01-16T08:57:05.712Z,1007.06
2019-01-16T08:58:05.702Z,1007.08
2019-01-16T08:59:05.698Z,1007.00
2019-01-16T09:00:05.688Z,1007.05
2019-01-16T09:01:05.700Z,1007.09
2019-01-16T09:02:05.676Z,1007.02
2019-01-16T09:03:05.685Z,1007.03
2019-01-16T09:04:05.672Z,1007.04
2019-01-16T09:05:05.682Z,1007.02
2019-01-16T09:06:05.659Z,1007.00
2019-01-16T09:07:05.682Z,1007.02
2019-01-16T09:08:05.670Z,1007.10
2019-01-16T09:09:05.649Z,1007.11
2019-01-16T09:10:05.661Z,1007.10
2019-01-16T09:11:05.656Z,1007.04
2019-01-16T09:12:05.630Z,1007.07
2019-01-16T09:13:05.709Z,1007.02
2019-01-16T09:14:05.625Z,1007.02
2019-01-16T09:15:05.621Z,1007.03
2019-01-16T09:16:05.815Z,1007.00
2019-01-16T09:17:05.613Z,1006.96
2019-01-16T09:18:05.830Z,1006.96
2019-01-16T09:19:05.600Z,1007.06
2019-01-16T09:20:05.601Z,1007.04
2019-01-16T09:21:05.609Z,1007.02
2019-01-16T09:22:05.599Z,1007.02
2019-01-16T09:23:05.799Z,1006.97
2019-01-16T09:24:05.593Z,1006.99
2019-01-16T09:25:05.577Z,1006.96
2019-01-16T09:26:05.571Z,1006.99
2019-01-16T09:27:05.785Z,1006.85
2019-01-16T09:28:05.576Z,1006.93
2019-01-16T09:29:05.572Z,1006.95
2019-01-16T09:30:05.754Z,1006.94
2019-01-16T09:31:05.573Z,1007.01
2019-01-16T09:32:05.751Z,1007.02
2019-01-16T09:33:05.555Z,1007.02
2019-01-16T09:34:05.745Z,1007.07
2019-01-16T09:35:05.545Z,1007.00
2019-01-16T09:36:05.539Z,1007.00
2019-01-16T09:37:05.521Z,1006.92
2019-01-16T09:38:05.535Z,1006.90
2019-01-16T09:39:05.519Z,1006.88
2019-01-16T09:40:05.535Z,1006.91
2019-01-16T09:41:05.508Z,1006.89
2019-01-16T09:42:05.515Z,1006.90
2019-01-16T09:43:05.518Z,1006.92
2019-01-16T09:44:05.504Z,1006.89
2019-01-16T09:45:05.696Z,1006.82
2019-01-16T09:46:05.517Z,1006.76
2019-01-16T09:47:05.484Z,1006.86
2019-01-16T09:48:05.503Z,1006.79
2019-01-16T09:49:05.501Z,1006.83
2019-01-16T09:50:05.484Z,1006.75
2019-01-16T09:51:05.469Z,1006.73
2019-01-16T09:52:05.480Z,1006.70
2019-01-16T09:53:05.488Z,1006.61
2019-01-16T09:54:05.653Z,1006.59
2019-01-16T09:55:05.472Z,1006.62
2019-01-16T09:56:05.472Z,1006.62
2019-01-16T09:57:05.670Z,1006.55
2019-01-16T09:58:05.433Z,1006.57
2019-01-16T09:59:05.434Z,1006.50
2019-01-16T10:00:05.423Z,1006.48
2019-01-16T10:01:05.421Z,1006.49
2019-01-16T10:02:05.617Z,1006.51
2019-01-16T10:03:05.420Z,1006.53
2019-01-16T10:04:05.409Z,1006.56
2019-01-16T10:05:05.420Z,1006.53
2019-01-16T10:06:05.605Z,1006.47
2019-01-16T10:07:05.406Z,1006.49
2019-01-16T10:08:05.600Z,1006.53
2019-01-16T10:09:05.387Z,1006.45
2019-01-16T10:10:05.392Z,1006.47
2019-01-16T10:11:05.384Z,1006.47
2019-01-16T10:12:05.592Z,1006.50
2019-01-16T10:13:05.388Z,1006.52
2019-01-16T10:14:05.369Z,1006.50
2019-01-16T10:15:05.379Z,1006.45
2019-01-16T10:16:05.356Z,1006.43
2019-01-16T10:17:05.354Z,1006.47
2019-01-16T10:18:05.348Z,1006.42
2019-01-16T10:19:05.547Z,1006.44
2019-01-16T10:20:05.547Z,1006.45
2019-01-16T10:21:05.354Z,1006.39
2019-01-16T10:22:05.335Z,1006.36
2019-01-16T10:23:05.321Z,1006.33
2019-01-16T10:24:05.332Z,1006.31
2019-01-16T10:25:05.526Z,1006.30
2019-01-16T10:26:05.316Z,1006.29
2019-01-16T10:27:05.322Z,1006.32
2019-01-16T10:28:05.303Z,1006.27
2019-01-16T10:29:05.300Z,1006.32
2019-01-16T10:30:05.320Z,1006.34
2019-01-16T10:31:05.308Z,1006.45
2019-01-16T10:32:05.297Z,1006.49
2019-01-16T10:33:05.283Z,1006.54
2019-01-16T10:34:05.276Z,1006.55
2019-01-16T10:35:05.273Z,1006.42
2019-01-16T10:36:05.271Z,1006.37
2019-01-16T10:37:05.272Z,1006.30
2019-01-16T10:38:05.257Z,1006.31
2019-01-16T10:39:05.264Z,1006.22
2019-01-16T10:40:05.251Z,1006.32
2019-01-16T10:41:05.459Z,1006.26
2019-01-16T10:42:05.245Z,1006.24
2019-01-16T10:43:05.241Z,1006.15
2019-01-16T10:44:05.238Z,1006.20
2019-01-16T10:45:05.227Z,1006.27
2019-01-16T10:46:05.242Z,1006.14
2019-01-16T10:47:05.425Z,1006.15
2019-01-16T10:48:05.227Z,1006.17
2019-01-16T10:49:05.214Z,1006.14
2019-01-16T10:50:05.208Z,1006.14
2019-01-16T10:51:05.220Z,1006.04
2019-01-16T10:52:05.401Z,1006.09
2019-01-16T10:53:05.204Z,1006.08
2019-01-16T10:54:05.189Z,1006.09
2019-01-16T10:55:05.193Z,1006.11
2019-01-16T10:56:05.182Z,1006.07
2019-01-16T10:57:05.188Z,1006.10
2019-01-16T10:58:05.195Z,1006.09
2019-01-16T10:59:05.203Z,1006.08
2019-01-16T11:00:05.381Z,1006.05
2019-01-16T11:01:05.364Z,1006.01
2019-01-16T11:02:05.353Z,1006.01
2019-01-16T11:03:05.166Z,1006.08
2019-01-16T11:04:05.145Z,1006.04
2019-01-16T11:05:05.135Z,1005.93
2019-01-16T11:06:05.143Z,1005.99
2019-01-16T11:07:05.150Z,1005.91
2019-01-16T11:08:05.124Z,1005.90
2019-01-16T11:09:05.124Z,1005.90
2019-01-16T11:10:05.137Z,1005.84
2019-01-16T11:11:06.692Z,1005.82
2019-01-16T11:12:05.309Z,1005.82
2019-01-16T11:13:05.117Z,1005.79
2019-01-16T11:14:05.105Z,1005.73
2019-01-16T11:15:05.094Z,1005.73
2019-01-16T11:16:05.323Z,1005.69
2019-01-16T11:17:05.103Z,1005.69
2019-01-16T11:18:05.081Z,1005.65
2019-01-16T11:19:05.091Z,1005.65
2019-01-16T11:20:05.093Z,1005.57
2019-01-16T11:21:10.973Z,1005.60
2019-01-16T11:22:05.083Z,1005.55
2019-01-16T11:23:05.064Z,1005.53
2019-01-16T11:24:05.055Z,1005.55
2019-01-16T11:25:05.063Z,1005.50
2019-01-16T11:26:05.054Z,1005.47
2019-01-16T11:27:05.043Z,1005.38
2019-01-16T11:28:05.043Z,1005.44
2019-01-16T11:29:05.039Z,1005.44
2019-01-16T11:30:05.035Z,1005.34
2019-01-16T11:31:05.027Z,1005.40
2019-01-16T11:32:05.038Z,1005.39
2019-01-16T11:33:05.016Z,1005.40
2019-01-16T11:34:05.038Z,1005.42
2019-01-16T11:35:05.013Z,1005.36
2019-01-16T11:36:05.016Z,1005.33
2019-01-16T11:37:05.228Z,1005.21
2019-01-16T11:38:05.014Z,1005.28
2019-01-16T11:39:05.201Z,1005.24
2019-01-16T11:40:05.281Z,1005.25
2019-01-16T11:41:04.987Z,1005.25
2019-01-16T11:42:04.989Z,1005.29
2019-01-16T11:43:04.982Z,1005.21
2019-01-16T11:44:04.973Z,1005.24
2019-01-16T11:45:05.179Z,1005.24
2019-01-16T11:46:04.969Z,1005.18
2019-01-16T11:47:04.975Z,1005.18
2019-01-16T11:49:04.946Z,1005.18
2019-01-16T11:50:04.962Z,1005.17
2019-01-16T11:51:05.157Z,1005.18
2019-01-16T11:52:04.939Z,1005.15
2019-01-16T11:53:04.936Z,1005.08
2019-01-16T11:54:04.928Z,1005.08
2019-01-16T11:55:04.926Z,1005.05
2019-01-16T11:56:04.937Z,1005.05
2019-01-16T11:57:04.927Z,1005.02
2019-01-16T11:58:04.926Z,1005.00
2019-01-16T11:59:04.919Z,1004.98
2019-01-16T12:00:04.933Z,1004.95
2019-01-16T12:01:04.905Z,1004.99
2019-01-16T12:02:04.893Z,1005.07
2019-01-16T12:03:04.898Z,1005.04
2019-01-16T12:04:04.885Z,1005.04
2019-01-16T12:05:05.084Z,1004.98
2019-01-16T12:06:05.081Z,1004.94